Time;durP1;ratioP1;P1;durP2;ratioP2;P2;SDS_P1;SDS_P2;PMS_P1;PMS_P2;Temp;Humidity;BMP_temperature;BMP_pressure;BME280_temperature;BME280_humidity;BME280_pressure;Samples;Min_cycle;Max_cycle;Signal;HPM_P1;HPM_P2
2024/01/05 00:01:43;;;;;;;30.48;11.20;;;;;;;-148.88;100.00;-17125.47;5017621;28;20034;-87
2024/01/05 00:04:08;;;;;;;27.27;11.68;;;;;;;-148.88;100.00;-17125.47;5035247;28;20040;-87
2024/01/05 00:06:40;;;;;;;30.13;11.32;;;;;;;-148.88;100.00;-17125.47;5034702;28;20029;-87
2024/01/05 00:09:13;;;;;;;34.15;11.48;;;;;;;-148.88;100.00;-17125.47;5036172;28;20021;-87
2024/01/05 00:11:38;;;;;;;36.80;11.87;;;;;;;-148.88;100.00;-17125.47;5035429;28;20052;-87
2024/01/05 00:14:03;;;;;;;35.97;12.27;;;;;;;-148.88;100.00;-17125.47;5017846;28;20286;-87
2024/01/05 00:16:29;;;;;;;37.80;12.40;;;;;;;-148.88;100.00;-17125.47;5034831;28;20116;-88
2024/01/05 00:18:57;;;;;;;33.70;13.10;;;;;;;-148.88;100.00;-17125.47;5017439;28;20053;-87
2024/01/05 00:21:27;;;;;;;36.03;12.10;;;;;;;-148.88;100.00;-17125.47;5017282;28;20033;-87
2024/01/05 00:23:55;;;;;;;31.35;11.15;;;;;;;-148.88;100.00;-17125.47;5017636;28;20025;-87
2024/01/05 00:26:21;;;;;;;29.40;10.88;;;;;;;-148.88;100.00;-17125.47;5034478;28;20032;-87
2024/01/05 00:28:48;;;;;;;30.42;11.15;;;;;;;-148.88;100.00;-17125.47;5034500;28;20484;-87
2024/01/05 00:31:14;;;;;;;28.48;9.75;;;;;;;-148.88;100.00;-17125.47;5035286;28;20112;-87
2024/01/05 00:33:40;;;;;;;45.75;12.55;;;;;;;-148.88;100.00;-17125.47;5017079;28;20400;-87
2024/01/05 00:36:07;;;;;;;34.30;11.27;;;;;;;-148.88;100.00;-17125.47;5034763;28;20014;-87
2024/01/05 00:38:33;;;;;;;35.75;11.32;;;;;;;-148.88;100.00;-17125.47;5016611;28;20476;-88
2024/01/05 00:40:58;;;;;;;30.88;10.43;;;;;;;-148.88;100.00;-17125.47;5034685;28;20032;-87
2024/01/05 00:43:24;;;;;;;29.13;10.30;;;;;;;-148.88;100.00;-17125.47;5034622;28;20028;-87
2024/01/05 00:45:49;;;;;;;35.03;10.85;;;;;;;-148.88;100.00;-17125.47;5034812;28;20018;-87
2024/01/05 00:48:14;;;;;;;26.52;10.05;;;;;;;-148.88;100.00;-17125.47;5017346;28;20025;-87
2024/01/05 00:50:40;;;;;;;36.03;10.13;;;;;;;-148.88;100.00;-17125.47;5035445;28;20022;-88
2024/01/05 00:53:05;;;;;;;29.70;10.82;;;;;;;-148.88;100.00;-17125.47;5018856;28;20464;-87
2024/01/05 00:55:40;;;;;;;41.80;12.32;;;;;;;-148.88;100.00;-17125.47;5033997;28;20017;-88
2024/01/05 00:58:08;;;;;;;28.40;10.75;;;;;;;-148.88;100.00;-17125.47;5016084;28;20060;-88
2024/01/05 01:00:36;;;;;;;36.42;10.68;;;;;;;-148.88;100.00;-17125.47;5033510;28;20025;-88
2024/01/05 01:03:20;;;;;;;36.00;11.07;;;;;;;-148.88;100.00;-17125.47;5016154;28;20044;-87
2024/01/05 01:05:46;;;;;;;38.35;10.82;;;;;;;-148.88;100.00;-17125.47;5015732;28;20033;-88
2024/01/05 01:08:12;;;;;;;39.03;12.48;;;;;;;-148.88;100.00;-17125.47;5034375;28;20036;-88
2024/01/05 01:10:38;;;;;;;39.33;12.25;;;;;;;-148.88;100.00;-17125.47;5033673;28;20040;-88
2024/01/05 01:13:06;;;;;;;38.58;11.57;;;;;;;-148.88;100.00;-17125.47;5016174;28;20021;-88
2024/01/05 01:15:32;;;;;;;40.58;12.10;;;;;;;-148.88;100.00;-17125.47;5016428;28;20021;-87
2024/01/05 01:17:57;;;;;;;29.48;9.48;;;;;;;-148.88;100.00;-17125.47;5016478;28;20120;-87
2024/01/05 01:20:22;;;;;;;32.38;11.23;;;;;;;-148.88;100.00;-17125.47;5033654;28;20112;-87
2024/01/05 01:22:48;;;;;;;33.28;11.18;;;;;;;-148.88;100.00;-17125.47;5034040;28;20044;-88
2024/01/05 01:25:13;;;;;;;34.03;10.10;;;;;;;-148.88;100.00;-17125.47;5033661;28;20118;-88
2024/01/05 01:27:39;;;;;;;37.28;11.50;;;;;;;-148.88;100.00;-17125.47;5015359;28;20041;-87
2024/01/05 01:30:08;;;;;;;40.97;11.75;;;;;;;-148.88;100.00;-17125.47;5033631;28;20218;-87
2024/01/05 01:32:33;;;;;;;34.97;10.68;;;;;;;-148.88;100.00;-17125.47;5033441;28;20085;-87
2024/01/05 01:34:59;;;;;;;44.50;12.55;;;;;;;-148.88;100.00;-17125.47;5033713;28;20021;-88
2024/01/05 01:37:24;;;;;;;34.00;11.85;;;;;;;-148.88;100.00;-17125.47;5032923;28;20025;-87
2024/01/05 01:39:50;;;;;;;40.65;12.57;;;;;;;-148.88;100.00;-17125.47;5033617;28;20052;-88
2024/01/05 01:42:15;;;;;;;39.33;12.18;;;;;;;-148.88;100.00;-17125.47;5033043;28;20032;-88
2024/01/05 01:44:40;;;;;;;33.72;10.85;;;;;;;-148.88;100.00;-17125.47;5015840;28;20021;-88
2024/01/05 01:47:06;;;;;;;41.33;11.40;;;;;;;-148.88;100.00;-17125.47;5033120;28;20021;-87
2024/01/05 01:49:31;;;;;;;39.97;12.27;;;;;;;-148.88;100.00;-17125.47;5016235;28;20052;-88
2024/01/05 01:51:57;;;;;;;38.25;11.38;;;;;;;-148.88;100.00;-17125.47;5033281;28;20105;-87
2024/01/05 01:54:23;;;;;;;41.42;11.85;;;;;;;-148.88;100.00;-17125.47;5015352;28;20029;-87
2024/01/05 01:56:49;;;;;;;36.80;10.65;;;;;;;-148.88;100.00;-17125.47;5015370;28;20047;-87
2024/01/05 01:59:15;;;;;;;37.00;11.05;;;;;;;-148.88;100.00;-17125.47;5033113;28;20026;-87
2024/01/05 02:01:46;;;;;;;34.95;11.18;;;;;;;-148.88;100.00;-17125.47;5015504;28;20025;-87
2024/01/05 02:04:18;;;;;;;61.05;14.48;;;;;;;-148.88;100.00;-17125.47;5033335;28;20025;-88
2024/01/05 02:06:47;;;;;;;48.15;12.32;;;;;;;-148.88;100.00;-17125.47;5032791;28;20068;-88
2024/01/05 02:09:13;;;;;;;57.67;13.70;;;;;;;-148.88;100.00;-17125.47;5015311;28;20029;-88
2024/01/05 02:11:39;;;;;;;34.97;10.95;;;;;;;-148.88;100.00;-17125.47;5032810;28;20025;-88
2024/01/05 02:14:13;;;;;;;34.97;11.65;;;;;;;-148.88;100.00;-17125.47;5032836;28;20044;-87
2024/01/05 02:16:41;;;;;;;44.05;12.30;;;;;;;-148.88;100.00;-17125.47;5033111;28;20025;-87
2024/01/05 02:19:06;;;;;;;37.42;11.93;;;;;;;-148.88;100.00;-17125.47;5033532;28;20036;-87
2024/01/05 02:21:38;;;;;;;39.75;12.32;;;;;;;-148.88;100.00;-17125.47;5032965;28;20393;-87
2024/01/05 02:24:04;;;;;;;45.80;12.35;;;;;;;-148.88;100.00;-17125.47;5015701;28;20453;-87
2024/01/05 02:26:30;;;;;;;38.92;12.30;;;;;;;-148.88;100.00;-17125.47;5032919;28;20528;-88
2024/01/05 02:28:55;;;;;;;38.95;12.18;;;;;;;-148.88;100.00;-17125.47;5015999;28;20029;-88
2024/01/05 02:31:21;;;;;;;31.02;11.52;;;;;;;-148.88;100.00;-17125.47;5015997;28;20490;-88
2024/01/05 02:33:46;;;;;;;37.72;12.60;;;;;;;-148.88;100.00;-17125.47;5032983;28;20067;-88
2024/01/05 02:36:12;;;;;;;31.88;10.73;;;;;;;-148.88;100.00;-17125.47;5033141;28;20024;-88
2024/01/05 02:38:37;;;;;;;29.13;10.07;;;;;;;-148.88;100.00;-17125.47;5033002;28;20044;-87
2024/01/05 02:41:05;;;;;;;35.30;11.90;;;;;;;-148.88;100.00;-17125.47;5033229;28;20029;-87
2024/01/05 02:43:31;;;;;;;37.75;11.38;;;;;;;-148.88;100.00;-17125.47;5032876;28;20060;-88
2024/01/05 02:45:56;;;;;;;31.92;10.23;;;;;;;-148.88;100.00;-17125.47;5032770;28;20064;-87
2024/01/05 02:48:22;;;;;;;33.35;9.40;;;;;;;-148.88;100.00;-17125.47;5017641;28;20021;-87
2024/01/05 02:50:47;;;;;;;29.75;9.27;;;;;;;-148.88;100.00;-17125.47;5036489;28;20068;-87
2024/01/05 02:53:12;;;;;;;30.70;10.18;;;;;;;-148.88;100.00;-17125.47;5035948;28;20025;-87
2024/01/05 02:55:38;;;;;;;28.05;9.93;;;;;;;-148.88;100.00;-17125.47;5036379;28;20018;-88
2024/01/05 02:58:03;;;;;;;35.85;10.32;;;;;;;-148.88;100.00;-17125.47;5036380;28;20029;-87
2024/01/05 03:00:32;;;;;;;31.58;10.43;;;;;;;-148.88;100.00;-17125.47;5035972;28;20028;-88
2024/01/05 03:02:57;;;;;;;23.70;8.85;;;;;;;-148.88;100.00;-17125.47;5035929;28;20017;-87
2024/01/05 03:05:22;;;;;;;32.30;10.73;;;;;;;-148.88;100.00;-17125.47;5035973;28;20080;-87
2024/01/05 03:07:48;;;;;;;30.63;8.35;;;;;;;-148.88;100.00;-17125.47;5018165;28;20068;-87
2024/01/05 03:10:13;;;;;;;21.98;7.70;;;;;;;-148.88;100.00;-17125.47;5036267;28;20387;-87
2024/01/05 03:12:39;;;;;;;26.33;8.02;;;;;;;-148.88;100.00;-17125.47;5036543;28;20361;-87
2024/01/05 03:15:04;;;;;;;21.10;7.10;;;;;;;-148.88;100.00;-17125.47;5036038;28;20115;-87
2024/01/05 03:17:30;;;;;;;20.52;7.13;;;;;;;-148.88;100.00;-17125.47;5036032;28;20032;-87
2024/01/05 03:19:55;;;;;;;27.35;8.32;;;;;;;-148.88;100.00;-17125.47;5035843;28;20029;-87
2024/01/05 03:22:21;;;;;;;25.20;8.40;;;;;;;-148.88;100.00;-17125.47;5035847;28;20076;-86
2024/01/05 03:24:46;;;;;;;25.85;8.85;;;;;;;-148.88;100.00;-17125.47;5035755;28;20017;-87
2024/01/05 03:27:14;;;;;;;25.90;7.78;;;;;;;-148.88;100.00;-17125.47;5035619;28;20065;-87
2024/01/05 03:29:41;;;;;;;17.55;6.10;;;;;;;-148.88;100.00;-17125.47;5035533;28;20104;-87
2024/01/05 03:32:10;;;;;;;23.70;7.22;;;;;;;-148.88;100.00;-17125.47;5035279;28;20464;-87
2024/01/05 03:34:35;;;;;;;23.90;7.85;;;;;;;-148.88;100.00;-17125.47;5017637;28;20013;-87
2024/01/05 03:37:01;;;;;;;34.17;9.05;;;;;;;-148.88;100.00;-17125.47;5036191;28;20029;-87
2024/01/05 03:39:26;;;;;;;35.00;8.93;;;;;;;-148.88;100.00;-17125.47;5035252;28;20480;-87
2024/01/05 03:41:52;;;;;;;22.05;8.38;;;;;;;-148.88;100.00;-17125.47;5018600;28;20029;-87
2024/01/05 03:44:20;;;;;;;29.15;8.40;;;;;;;-148.88;100.00;-17125.47;5036045;28;20052;-87
2024/01/05 03:46:52;;;;;;;26.15;8.93;;;;;;;-148.88;100.00;-17125.47;5018541;28;20071;-87
2024/01/05 03:49:17;;;;;;;28.50;9.25;;;;;;;-148.88;100.00;-17125.47;5035081;28;20026;-87
2024/01/05 03:51:43;;;;;;;19.52;7.85;;;;;;;-148.88;100.00;-17125.47;5035046;28;20021;-87
2024/01/05 03:54:09;;;;;;;45.47;10.00;;;;;;;-148.88;100.00;-17125.47;5034982;28;20369;-87
2024/01/05 03:56:46;;;;;;;33.63;8.77;;;;;;;-148.88;100.00;-17125.47;5034968;28;20080;-87
2024/01/05 03:59:11;;;;;;;56.90;10.85;;;;;;;-148.88;100.00;-17125.47;5034340;28;20056;-87
2024/01/05 04:01:44;;;;;;;26.23;8.48;;;;;;;-148.88;100.00;-17125.47;5034836;28;20026;-87
2024/01/05 04:04:10;;;;;;;38.90;8.57;;;;;;;-148.88;100.00;-17125.47;5034722;28;20091;-87
2024/01/05 04:06:35;;;;;;;30.17;9.00;;;;;;;-148.88;100.00;-17125.47;5017394;28;20485;-86
2024/01/05 04:09:01;;;;;;;31.10;8.70;;;;;;;-148.88;100.00;-17125.47;5035107;28;20064;-87
2024/01/05 04:11:30;;;;;;;48.05;9.18;;;;;;;-148.88;100.00;-17125.47;5034878;28;20079;-87
2024/01/05 04:13:55;;;;;;;61.80;11.68;;;;;;;-148.88;100.00;-17125.47;5016975;28;20032;-87
2024/01/05 04:16:21;;;;;;;80.53;12.13;;;;;;;-148.88;100.00;-17125.47;5016922;28;20022;-87
2024/01/05 04:18:46;;;;;;;47.00;9.63;;;;;;;-148.88;100.00;-17125.47;5034905;28;20022;-87
2024/01/05 04:21:13;;;;;;;57.58;9.98;;;;;;;-148.88;100.00;-17125.47;5034432;28;20418;-86
2024/01/05 04:23:40;;;;;;;64.57;10.20;;;;;;;-148.88;100.00;-17125.47;5017027;28;20399;-86
2024/01/05 04:26:05;;;;;;;130.20;15.43;;;;;;;-148.88;100.00;-17125.47;5034764;28;20029;-86
2024/01/05 04:28:31;;;;;;;99.18;11.55;;;;;;;-148.88;100.00;-17125.47;5034392;28;20029;-87
2024/01/05 04:30:56;;;;;;;68.80;10.32;;;;;;;-148.88;100.00;-17125.47;5034251;28;20033;-87
2024/01/05 04:33:21;;;;;;;42.03;9.90;;;;;;;-148.88;100.00;-17125.47;5016483;28;20022;-87
2024/01/05 04:35:47;;;;;;;33.60;9.18;;;;;;;-148.88;100.00;-17125.47;5016148;28;20029;-87
2024/01/05 04:38:12;;;;;;;30.13;7.43;;;;;;;-148.88;100.00;-17125.47;5016789;28;20049;-86
2024/01/05 04:40:37;;;;;;;32.80;9.32;;;;;;;-148.88;100.00;-17125.47;5034431;28;20041;-87
2024/01/05 04:43:03;;;;;;;32.83;9.05;;;;;;;-148.88;100.00;-17125.47;5034069;28;20079;-87
2024/01/05 04:45:28;;;;;;;33.83;9.10;;;;;;;-148.88;100.00;-17125.47;5033966;28;20445;-86
2024/01/05 04:47:54;;;;;;;47.55;10.07;;;;;;;-148.88;100.00;-17125.47;5016602;28;20064;-87
2024/01/05 04:50:19;;;;;;;30.23;8.77;;;;;;;-148.88;100.00;-17125.47;5034139;28;20071;-87
2024/01/05 04:52:44;;;;;;;34.55;10.90;;;;;;;-148.88;100.00;-17125.47;5034402;28;20550;-87
2024/01/05 04:55:14;;;;;;;26.05;8.65;;;;;;;-148.88;100.00;-17125.47;5034169;28;20022;-87
2024/01/05 04:57:40;;;;;;;29.25;9.50;;;;;;;-148.88;100.00;-17125.47;5033670;28;20408;-87
2024/01/05 05:00:08;;;;;;;25.95;9.05;;;;;;;-148.88;100.00;-17125.47;5034184;28;20025;-87
2024/01/05 05:02:33;;;;;;;23.98;8.55;;;;;;;-148.88;100.00;-17125.47;5016098;28;20091;-87
2024/01/05 05:05:01;;;;;;;26.35;8.45;;;;;;;-148.88;100.00;-17125.47;5033749;28;20421;-87
2024/01/05 05:07:27;;;;;;;27.65;9.05;;;;;;;-148.88;100.00;-17125.47;5015943;28;20029;-87
2024/01/05 05:09:52;;;;;;;29.67;9.48;;;;;;;-148.88;100.00;-17125.47;5015520;28;20033;-86
2024/01/05 05:12:17;;;;;;;35.13;10.60;;;;;;;-148.88;100.00;-17125.47;5016288;28;20032;-86
2024/01/05 05:14:43;;;;;;;25.25;7.95;;;;;;;-148.88;100.00;-17125.47;5033571;28;20024;-87
2024/01/05 05:17:09;;;;;;;27.23;8.50;;;;;;;-148.88;100.00;-17125.47;5033786;28;20157;-87
2024/01/05 05:19:34;;;;;;;35.08;9.13;;;;;;;-148.88;100.00;-17125.47;5016413;28;20112;-87
2024/01/05 05:22:00;;;;;;;26.52;9.43;;;;;;;-148.88;100.00;-17125.47;5033275;28;20026;-87
2024/01/05 05:24:25;;;;;;;25.25;8.07;;;;;;;-148.88;100.00;-17125.47;5033293;28;20473;-87
2024/01/05 05:26:50;;;;;;;29.17;9.75;;;;;;;-148.88;100.00;-17125.47;5033568;28;20117;-87
2024/01/05 05:29:16;;;;;;;45.45;10.75;;;;;;;-148.88;100.00;-17125.47;5015919;28;20025;-87
2024/01/05 05:31:41;;;;;;;41.78;10.73;;;;;;;-148.88;100.00;-17125.47;5033504;28;20030;-87
2024/01/05 05:34:07;;;;;;;79.07;12.73;;;;;;;-148.88;100.00;-17125.47;5015689;28;20029;-87
2024/01/05 05:36:32;;;;;;;90.30;14.90;;;;;;;-148.88;100.00;-17125.47;5033191;28;20032;-87
2024/01/05 05:39:18;;;;;;;111.80;15.88;;;;;;;-148.88;100.00;-17125.47;5033403;28;20025;-87
2024/01/05 05:41:49;;;;;;;82.72;13.05;;;;;;;-148.88;100.00;-17125.47;5013387;28;20508;-87
2024/01/05 05:44:25;;;;;;;53.10;11.43;;;;;;;-148.88;100.00;-17125.47;5032998;28;20025;-87
2024/01/05 05:47:17;;;;;;;118.80;15.15;;;;;;;-148.88;100.00;-17125.47;5015174;28;20037;-87
2024/01/05 05:49:51;;;;;;;69.88;13.00;;;;;;;-148.88;100.00;-17125.47;5012549;28;20026;-87
2024/01/05 05:52:26;;;;;;;64.25;11.40;;;;;;;-148.88;100.00;-17125.47;5015124;28;20466;-87
2024/01/05 05:55:16;;;;;;;31.42;8.57;;;;;;;-148.88;100.00;-17125.47;5016007;28;20491;-87
2024/01/05 05:57:45;;;;;;;25.70;8.40;;;;;;;-148.88;100.00;-17125.47;5016711;28;20049;-87
2024/01/05 06:00:21;;;;;;;26.98;9.38;;;;;;;-148.88;100.00;-17125.47;5015170;28;20032;-87
2024/01/05 06:02:55;;;;;;;33.53;10.32;;;;;;;-148.88;100.00;-17125.47;5032223;28;20496;-87
2024/01/05 06:05:28;;;;;;;30.88;9.13;;;;;;;-148.88;100.00;-17125.47;5013219;28;20464;-87
2024/01/05 06:08:07;;;;;;;65.78;11.48;;;;;;;-148.88;100.00;-17125.47;5015288;28;20033;-87
2024/01/05 06:10:36;;;;;;;43.13;10.30;;;;;;;-148.88;100.00;-17125.47;5014568;28;20191;-87
2024/01/05 06:13:19;;;;;;;26.02;8.32;;;;;;;-148.88;100.00;-17125.47;5016226;28;20076;-86
2024/01/05 06:15:50;;;;;;;28.10;8.93;;;;;;;-148.88;100.00;-17125.47;5015523;28;20024;-86
2024/01/05 06:18:24;;;;;;;26.95;7.80;;;;;;;-148.88;100.00;-17125.47;5015655;28;20029;-87
2024/01/05 06:21:05;;;;;;;24.00;8.18;;;;;;;-148.88;100.00;-17125.47;5015203;28;20044;-86
2024/01/05 06:23:31;;;;;;;26.15;8.38;;;;;;;-148.88;100.00;-17125.47;5017352;28;20041;-87
2024/01/05 06:25:57;;;;;;;30.35;8.40;;;;;;;-148.88;100.00;-17125.47;5019205;28;20032;-86
2024/01/05 06:28:26;;;;;;;26.77;8.82;;;;;;;-148.88;100.00;-17125.47;5036519;28;20184;-86
2024/01/05 06:31:10;;;;;;;35.22;9.80;;;;;;;-148.88;100.00;-17125.47;5018629;28;20507;-87
2024/01/05 06:33:44;;;;;;;28.13;8.35;;;;;;;-148.88;100.00;-17125.47;5035614;28;20060;-86
2024/01/05 06:36:12;;;;;;;22.95;9.10;;;;;;;-148.88;100.00;-17125.47;5017679;28;20030;-86
2024/01/05 06:38:43;;;;;;;32.33;8.50;;;;;;;-148.88;100.00;-17125.47;5036292;28;20546;-86
2024/01/05 06:41:30;;;;;;;28.23;9.20;;;;;;;-148.88;100.00;-17125.47;5019213;28;20380;-86
2024/01/05 06:43:55;;;;;;;30.00;9.30;;;;;;;-148.88;100.00;-17125.47;5018833;28;20017;-87
2024/01/05 06:46:40;;;;;;;35.95;9.32;;;;;;;-148.88;100.00;-17125.47;5035864;28;20084;-88
2024/01/05 06:49:11;;;;;;;105.57;13.48;;;;;;;-148.88;100.00;-17125.47;5037244;28;20369;-87
2024/01/05 06:51:40;;;;;;;103.78;11.85;;;;;;;-148.88;100.00;-17125.47;5019091;28;20392;-86
2024/01/05 06:54:09;;;;;;;54.95;12.05;;;;;;;-148.88;100.00;-17125.47;5034537;28;20091;-86
2024/01/05 06:57:02;;;;;;;20.25;7.65;;;;;;;-148.88;100.00;-17125.47;5018566;28;20022;-85
2024/01/05 06:59:31;;;;;;;23.83;8.52;;;;;;;-148.88;100.00;-17125.47;5018062;28;20021;-86
2024/01/05 07:02:07;;;;;;;23.95;8.05;;;;;;;-148.88;100.00;-17125.47;5036223;28;20033;-86
2024/01/05 07:04:45;;;;;;;28.13;8.18;;;;;;;-148.88;100.00;-17125.47;5036048;28;20472;-86
2024/01/05 07:07:26;;;;;;;25.17;8.30;;;;;;;-148.88;100.00;-17125.47;5035481;28;20029;-85
2024/01/05 07:10:00;;;;;;;20.08;7.93;;;;;;;-148.88;100.00;-17125.47;5018737;28;20060;-85
2024/01/05 07:12:31;;;;;;;27.08;7.55;;;;;;;-148.88;100.00;-17125.47;5017702;28;20044;-86
2024/01/05 07:15:08;;;;;;;23.55;7.47;;;;;;;-148.88;100.00;-17125.47;5017754;28;20031;-85
2024/01/05 07:18:12;;;;;;;26.48;9.48;;;;;;;-148.88;100.00;-17125.47;5017680;28;20037;-85
2024/01/05 07:20:45;;;;;;;25.08;8.43;;;;;;;-148.88;100.00;-17125.47;5018007;28;20057;-85
2024/01/05 07:23:19;;;;;;;21.27;7.10;;;;;;;-148.88;100.00;-17125.47;5017436;28;20452;-85
2024/01/05 07:26:05;;;;;;;21.15;7.72;;;;;;;-148.88;100.00;-17125.47;5017851;28;20033;-85
2024/01/05 07:28:45;;;;;;;21.08;7.40;;;;;;;-148.88;100.00;-17125.47;5035594;28;20025;-85
2024/01/05 07:31:36;;;;;;;27.13;8.88;;;;;;;-148.88;100.00;-17125.47;5035254;28;20033;-86
2024/01/05 07:34:11;;;;;;;24.85;8.30;;;;;;;-148.88;100.00;-17125.47;5024296;28;20034;-86
2024/01/05 07:37:06;;;;;;;32.33;9.43;;;;;;;-148.88;100.00;-17125.47;5035174;28;20033;-86
2024/01/05 07:39:31;;;;;;;26.08;7.53;;;;;;;-148.88;100.00;-17125.47;5019180;28;20108;-86
2024/01/05 07:41:57;;;;;;;27.67;8.25;;;;;;;-148.88;100.00;-17125.47;5035169;28;20109;-86
2024/01/05 07:44:22;;;;;;;21.95;8.65;;;;;;;-148.88;100.00;-17125.47;5035570;28;20103;-86
2024/01/05 07:46:47;;;;;;;22.70;8.75;;;;;;;-148.88;100.00;-17125.47;5036459;28;20030;-86
2024/01/05 07:49:13;;;;;;;23.67;8.25;;;;;;;-148.88;100.00;-17125.47;5057022;28;20065;-86
2024/01/05 07:51:39;;;;;;;32.92;7.95;;;;;;;-148.88;100.00;-17125.47;5038751;28;20029;-86
2024/01/05 07:54:04;;;;;;;26.48;8.32;;;;;;;-148.88;100.00;-17125.47;5017473;28;20082;-86
2024/01/05 07:56:30;;;;;;;21.20;8.43;;;;;;;-148.88;100.00;-17125.47;5017600;28;20013;-86
2024/01/05 07:58:58;;;;;;;26.65;7.68;;;;;;;-148.88;100.00;-17125.47;5035419;28;20483;-86
2024/01/05 08:01:27;;;;;;;27.17;8.43;;;;;;;-148.88;100.00;-17125.47;5034726;28;20017;-86
2024/01/05 08:03:52;;;;;;;26.60;8.73;;;;;;;-148.88;100.00;-17125.47;5034716;28;20481;-86
2024/01/05 08:06:21;;;;;;;28.75;8.63;;;;;;;-148.88;100.00;-17125.47;5034620;28;20121;-86
2024/01/05 08:08:49;;;;;;;26.65;9.20;;;;;;;-148.88;100.00;-17125.47;5017051;28;20025;-86
2024/01/05 08:11:16;;;;;;;25.35;8.45;;;;;;;-148.88;100.00;-17125.47;5016351;28;20480;-86
2024/01/05 08:13:46;;;;;;;20.77;8.02;;;;;;;-148.88;100.00;-17125.47;5016620;28;20095;-86
2024/01/05 08:16:12;;;;;;;25.77;10.02;;;;;;;-148.88;100.00;-17125.47;5016727;28;20018;-86
2024/01/05 08:18:38;;;;;;;31.17;9.43;;;;;;;-148.88;100.00;-17125.47;5017039;28;20036;-86
2024/01/05 08:21:04;;;;;;;23.52;7.60;;;;;;;-148.88;100.00;-17125.47;5033921;28;20032;-86
2024/01/05 08:23:31;;;;;;;22.75;8.43;;;;;;;-148.88;100.00;-17125.47;5016311;28;20033;-86
2024/01/05 08:25:57;;;;;;;22.75;8.60;;;;;;;-148.88;100.00;-17125.47;5034018;28;20460;-85
2024/01/05 08:28:23;;;;;;;25.35;9.52;;;;;;;-148.88;100.00;-17125.47;5016950;28;20083;-86
2024/01/05 08:30:48;;;;;;;24.13;8.82;;;;;;;-148.88;100.00;-17125.47;5016553;28;20021;-86
2024/01/05 08:33:14;;;;;;;22.15;7.65;;;;;;;-148.88;100.00;-17125.47;5033761;28;20545;-86
2024/01/05 08:35:39;;;;;;;22.30;8.63;;;;;;;-148.88;100.00;-17125.47;5016667;28;20499;-86
2024/01/05 08:38:04;;;;;;;20.10;7.18;;;;;;;-148.88;100.00;-17125.47;5034447;28;20072;-85
2024/01/05 08:40:30;;;;;;;23.25;7.88;;;;;;;-148.88;100.00;-17125.47;5016506;28;20037;-85
2024/01/05 08:42:57;;;;;;;14.93;6.25;;;;;;;-148.88;100.00;-17125.47;5016275;28;20025;-86
2024/01/05 08:45:22;;;;;;;20.40;6.00;;;;;;;-148.88;100.00;-17125.47;5014632;28;20477;-86
2024/01/05 08:47:48;;;;;;;16.38;6.45;;;;;;;-148.88;100.00;-17125.47;5033671;28;20028;-85
2024/01/05 08:50:14;;;;;;;31.00;6.95;;;;;;;-148.88;100.00;-17125.47;5033749;28;20029;-85
2024/01/05 08:52:39;;;;;;;24.88;6.78;;;;;;;-148.88;100.00;-17125.47;5033240;28;20032;-85
2024/01/05 08:55:05;;;;;;;24.38;7.13;;;;;;;-148.88;100.00;-17125.47;5033936;28;20033;-85
2024/01/05 08:57:31;;;;;;;27.25;8.48;;;;;;;-148.88;100.00;-17125.47;5015758;28;20151;-85
2024/01/05 08:59:56;;;;;;;22.10;6.72;;;;;;;-148.88;100.00;-17125.47;5015489;28;20112;-85
2024/01/05 09:02:22;;;;;;;20.38;6.57;;;;;;;-148.88;100.00;-17125.47;5015562;28;20017;-86
2024/01/05 09:04:47;;;;;;;24.15;6.90;;;;;;;-148.88;100.00;-17125.47;5016197;28;20461;-86
2024/01/05 09:07:16;;;;;;;14.65;6.40;;;;;;;-148.88;100.00;-17125.47;5033218;28;20029;-85
2024/01/05 09:09:41;;;;;;;20.80;6.18;;;;;;;-148.88;100.00;-17125.47;5033283;28;20354;-86
2024/01/05 09:12:08;;;;;;;26.63;6.28;;;;;;;-148.88;100.00;-17125.47;5016092;28;20028;-85
2024/01/05 09:14:33;;;;;;;18.23;7.13;;;;;;;-148.88;100.00;-17125.47;5015969;28;20416;-85
2024/01/05 09:16:59;;;;;;;17.27;6.95;;;;;;;-148.88;100.00;-17125.47;5015864;28;20060;-86
2024/01/05 09:19:24;;;;;;;18.90;7.72;;;;;;;-148.88;100.00;-17125.47;5033912;28;20025;-86
2024/01/05 09:21:49;;;;;;;26.50;7.97;;;;;;;-148.88;100.00;-17125.47;5033903;28;20028;-86
2024/01/05 09:24:15;;;;;;;20.83;7.45;;;;;;;-148.88;100.00;-17125.47;5034753;28;20056;-85
2024/01/05 09:26:42;;;;;;;18.52;6.93;;;;;;;-148.88;100.00;-17125.47;5032821;28;20389;-86
2024/01/05 09:29:07;;;;;;;16.90;6.28;;;;;;;-148.88;100.00;-17125.47;5015479;28;20025;-86
2024/01/05 09:31:33;;;;;;;14.90;6.45;;;;;;;-148.88;100.00;-17125.47;5033080;28;20025;-85
2024/01/05 09:33:59;;;;;;;13.15;6.18;;;;;;;-148.88;100.00;-17125.47;5031991;28;20131;-86
2024/01/05 09:36:25;;;;;;;13.30;4.65;;;;;;;-148.88;100.00;-17125.47;5015571;28;20018;-86
2024/01/05 09:39:10;;;;;;;;;;;;;;;;;;;;;
2024/01/05 09:41:48;;;;;;;10.27;4.32;;;;;;;-148.88;100.00;-17125.47;5032927;28;20036;-87
2024/01/05 09:44:22;;;;;;;11.13;4.25;;;;;;;-148.88;100.00;-17125.47;5033049;28;20021;-86
2024/01/05 09:47:04;;;;;;;10.85;4.13;;;;;;;-148.88;100.00;-17125.47;5033200;28;20021;-87
2024/01/05 09:50:14;;;;;;;13.52;4.68;;;;;;;-148.88;100.00;-17125.47;5032114;28;20061;-87
2024/01/05 09:52:52;;;;;;;10.30;4.68;;;;;;;-148.88;100.00;-17125.47;4934032;29;20059;-87
2024/01/05 09:55:40;;;;;;;9.48;3.47;;;;;;;-148.88;100.00;-17125.47;4936533;29;20118;-86
2024/01/05 10:05:05;;;;;;;7.88;2.33;;;;;;;-148.88;100.00;-17125.47;4921338;29;20113;-87
2024/01/05 10:07:29;;;;;;;8.65;2.80;;;;;;;-148.88;100.00;-17125.47;5012782;28;20064;-87
2024/01/05 10:10:10;;;;;;;7.20;2.13;;;;;;;-148.88;100.00;-17125.47;5055796;28;20013;-87
2024/01/05 10:12:41;;;;;;;9.98;2.55;;;;;;;-148.88;100.00;-17125.47;5032893;28;20099;-87
2024/01/05 10:15:55;;;;;;;5.43;2.58;;;;;;;-148.88;100.00;-17125.47;5019117;28;20014;-87
2024/01/05 10:19:04;;;;;;;6.47;3.03;;;;;;;-148.88;100.00;-17125.47;5036452;28;20100;-87
2024/01/05 10:21:29;;;;;;;9.65;2.55;;;;;;;-148.88;100.00;-17125.47;5027256;22;20071;-81
2024/01/05 10:23:57;;;;;;;6.80;2.25;;;;;;;-148.88;100.00;-17125.47;5060276;28;20044;-80
2024/01/05 10:26:22;;;;;;;6.45;2.40;;;;;;;-148.88;100.00;-17125.47;5061652;28;20023;-80
2024/01/05 10:28:49;;;;;;;4.28;2.40;;;;;;;-148.88;100.00;-17125.47;5043613;28;20124;-80
2024/01/05 10:31:16;;;;;;;6.85;2.70;;;;;;;-148.88;100.00;-17125.47;5061431;28;20084;-81
2024/01/05 10:33:52;;;;;;;10.02;2.85;;;;;;;-148.88;100.00;-17125.47;5061101;28;20051;-80
2024/01/05 10:36:25;;;;;;;10.23;2.28;;;;;;;-148.88;100.00;-17125.47;5060060;28;20032;-81
2024/01/05 10:38:51;;;;;;;8.55;1.88;;;;;;;-148.88;100.00;-17125.47;5059156;28;20032;-80
2024/01/05 10:41:17;;;;;;;8.15;2.22;;;;;;;-148.88;100.00;-17125.47;5041577;28;20025;-80
2024/01/05 10:43:43;;;;;;;9.90;2.30;;;;;;;-148.88;100.00;-17125.47;5041098;28;20025;-80
2024/01/05 10:46:10;;;;;;;5.75;2.42;;;;;;;-148.88;100.00;-17125.47;5041085;28;20017;-81
2024/01/05 10:48:37;;;;;;;8.77;2.75;;;;;;;-148.88;100.00;-17125.47;5042052;28;20029;-80
2024/01/05 10:51:03;;;;;;;3.78;1.90;;;;;;;-148.88;100.00;-17125.47;5060323;28;20087;-80
2024/01/05 10:55:57;;;;;;;4.85;1.77;;;;;;;-148.88;100.00;-17125.47;5057312;28;20053;-80
2024/01/05 10:58:22;;;;;;;6.10;2.03;;;;;;;-148.88;100.00;-17125.47;5058883;28;20052;-80
2024/01/05 11:00:48;;;;;;;9.93;3.22;;;;;;;-148.88;100.00;-17125.47;5058881;28;20032;-80
2024/01/05 11:03:14;;;;;;;5.57;1.75;;;;;;;-148.88;100.00;-17125.47;5040545;28;20475;-80
2024/01/05 11:05:41;;;;;;;5.28;1.90;;;;;;;-148.88;100.00;-17125.47;5039921;28;20058;-81
2024/01/05 11:08:22;;;;;;;8.27;1.38;;;;;;;-148.88;100.00;-17125.47;5040695;28;20484;-81
2024/01/05 11:11:07;;;;;;;7.65;2.47;;;;;;;-148.88;100.00;-17125.47;5057040;28;20021;-80